createdAt,value
2018-04-02T00:00:42.496Z,0
2018-04-02T00:01:42.301Z,0
2018-04-02T00:02:42.527Z,0
2018-04-02T00:03:42.134Z,0
2018-04-02T00:04:42.217Z,0
2018-04-02T00:05:42.275Z,0
2018-04-02T00:06:42.256Z,0
2018-04-02T00:07:42.493Z,0
2018-04-02T00:08:42.512Z,0
2018-04-02T00:09:41.852Z,0
2018-04-02T00:10:42.094Z,0
2018-04-02T00:11:42.077Z,0
2018-04-02T00:12:41.856Z,0
2018-04-02T00:13:41.776Z,0
2018-04-02T00:14:41.759Z,0
2018-04-02T00:15:41.867Z,0
2018-04-02T00:16:41.549Z,0
2018-04-02T00:17:41.999Z,0
2018-04-02T00:18:42.131Z,0
2018-04-02T00:19:41.654Z,0
2018-04-02T00:20:42.025Z,0
2018-04-02T00:21:41.357Z,0
2018-04-02T00:22:41.867Z,0
2018-04-02T00:23:42.195Z,0
2018-04-02T00:24:41.290Z,0
2018-04-02T00:25:42.114Z,0
2018-04-02T00:26:41.840Z,0
2018-04-02T00:27:42.068Z,0
2018-04-02T00:28:41.982Z,0
2018-04-02T00:29:41.458Z,0
2018-04-02T00:30:41.720Z,0
2018-04-02T00:31:41.958Z,0
2018-04-02T00:32:41.933Z,0
2018-04-02T00:33:41.379Z,0
2018-04-02T00:34:41.373Z,0
2018-04-02T00:35:41.620Z,0
2018-04-02T00:36:41.615Z,0
2018-04-02T00:37:41.576Z,0
2018-04-02T00:38:41.660Z,0
2018-04-02T00:39:41.613Z,0
2018-04-02T00:40:41.837Z,0
2018-04-02T00:41:41.336Z,0
2018-04-02T00:42:41.257Z,0
2018-04-02T00:43:41.575Z,0
2018-04-02T00:44:41.425Z,0
2018-04-02T00:45:41.919Z,0
2018-04-02T00:46:41.171Z,0
2018-04-02T00:47:41.136Z,0
2018-04-02T00:48:41.136Z,0
2018-04-02T00:49:41.406Z,0
2018-04-02T00:50:41.585Z,0
2018-04-02T00:51:41.100Z,0
2018-04-02T00:52:41.307Z,0
2018-04-02T00:53:41.285Z,0
2018-04-02T00:54:41.043Z,0
2018-04-02T00:55:41.021Z,0
2018-04-02T00:56:40.923Z,0
2018-04-02T00:57:40.917Z,0
2018-04-02T00:58:41.160Z,0
2018-04-02T00:59:40.880Z,0
2018-04-02T01:00:40.670Z,0
2018-04-02T01:01:41.165Z,0
2018-04-02T01:02:40.902Z,0
2018-04-02T01:03:41.066Z,0
2018-04-02T01:04:41.076Z,0
2018-04-02T01:05:41.356Z,0
2018-04-02T01:06:40.505Z,0
2018-04-02T01:07:40.818Z,0
2018-04-02T01:08:41.028Z,0
2018-04-02T01:09:41.203Z,0
2018-04-02T01:10:40.970Z,0
2018-04-02T01:11:40.439Z,0
2018-04-02T01:12:40.959Z,0
2018-04-02T01:13:40.852Z,0
2018-04-02T01:14:40.613Z,0
2018-04-02T01:15:40.837Z,0
2018-04-02T01:16:41.166Z,0
2018-04-02T01:17:40.244Z,0
2018-04-02T01:18:40.752Z,0
2018-04-02T01:19:40.570Z,0
2018-04-02T01:20:40.441Z,0
2018-04-02T01:21:40.736Z,0
2018-04-02T01:22:40.776Z,0
2018-04-02T01:23:40.414Z,0
2018-04-02T01:24:40.100Z,0
2018-04-02T01:25:40.749Z,0
2018-04-02T01:26:40.328Z,0
2018-04-02T01:27:40.900Z,0
2018-04-02T01:28:40.614Z,0
2018-04-02T01:29:40.266Z,0
2018-04-02T01:30:40.774Z,0
2018-04-02T01:31:40.557Z,0
2018-04-02T01:32:40.779Z,0
2018-04-02T01:33:40.197Z,0
2018-04-02T01:34:40.167Z,0
2018-04-02T01:35:40.290Z,0
2018-04-02T01:36:39.898Z,0
2018-04-02T01:37:40.108Z,0
2018-04-02T01:38:40.471Z,0
2018-04-02T01:39:40.681Z,0
2018-04-02T01:40:40.653Z,0
2018-04-02T01:41:40.563Z,0
2018-04-02T01:42:40.720Z,0
2018-04-02T01:43:40.063Z,0
2018-04-02T01:44:40.353Z,0
2018-04-02T01:45:40.210Z,0
2018-04-02T01:46:40.529Z,0
2018-04-02T01:47:40.462Z,0
2018-04-02T01:48:39.729Z,0
2018-04-02T01:49:39.640Z,0
2018-04-02T01:50:39.585Z,0
2018-04-02T01:51:39.852Z,0
2018-04-02T01:52:39.860Z,0
2018-04-02T01:53:40.062Z,0
2018-04-02T01:54:40.303Z,0
2018-04-02T01:55:40.109Z,0
2018-04-02T01:56:40.095Z,0
2018-04-02T01:57:40.127Z,0
2018-04-02T01:58:39.961Z,0
2018-04-02T01:59:40.217Z,0
2018-04-02T02:00:39.984Z,0
2018-04-02T02:01:39.756Z,0
2018-04-02T02:02:39.940Z,0
2018-04-02T02:03:39.943Z,0
2018-04-02T02:04:40.003Z,0
2018-04-02T02:05:40.079Z,0
2018-04-02T02:06:39.534Z,0
2018-04-02T02:07:39.605Z,0
2018-04-02T02:08:39.842Z,0
2018-04-02T02:09:40.068Z,0
2018-04-02T02:10:39.574Z,0
2018-04-02T02:11:39.933Z,0
2018-04-02T02:12:39.791Z,0
2018-04-02T02:13:39.954Z,0
2018-04-02T02:14:39.673Z,0
2018-04-02T02:15:39.455Z,0
2018-04-02T02:16:39.361Z,0
2018-04-02T02:17:39.995Z,0
2018-04-02T02:18:39.836Z,0
2018-04-02T02:19:39.820Z,0
2018-04-02T02:20:39.282Z,0
2018-04-02T02:21:39.862Z,0
2018-04-02T02:22:39.230Z,0
2018-04-02T02:23:39.846Z,0
2018-04-02T02:24:39.718Z,0
2018-04-02T02:25:39.691Z,0
2018-04-02T02:26:39.723Z,0
2018-04-02T02:27:39.138Z,0
2018-04-02T02:28:39.516Z,0
2018-04-02T02:29:39.622Z,0
2018-04-02T02:30:39.326Z,0
2018-04-02T02:31:39.302Z,0
2018-04-02T02:32:39.314Z,0
2018-04-02T02:33:39.275Z,0
2018-04-02T02:34:38.971Z,0
2018-04-02T02:35:38.949Z,0
2018-04-02T02:36:39.206Z,0
2018-04-02T02:37:39.178Z,0
2018-04-02T02:38:39.169Z,0
2018-04-02T02:39:39.139Z,0
2018-04-02T02:40:39.111Z,0
2018-04-02T02:41:39.129Z,0
2018-04-02T02:42:39.348Z,0
2018-04-02T02:43:39.066Z,0
2018-04-02T02:44:39.324Z,0
2018-04-02T02:45:39.085Z,0
2018-04-02T02:46:38.729Z,0
2018-04-02T02:47:38.713Z,0
2018-04-02T02:48:38.742Z,0
2018-04-02T02:49:38.663Z,0
2018-04-02T02:50:39.205Z,0
2018-04-02T02:51:38.467Z,0
2018-04-02T02:52:38.333Z,0
2018-04-02T02:53:38.316Z,0
2018-04-02T02:54:38.823Z,0
2018-04-02T02:55:38.559Z,0
2018-04-02T02:56:39.118Z,0
2018-04-02T02:57:38.521Z,0
2018-04-02T02:58:38.543Z,0
2018-04-02T02:59:39.063Z,0
2018-04-02T03:00:38.756Z,0
2018-04-02T03:01:38.711Z,0
2018-04-02T03:02:38.666Z,0
2018-04-02T03:03:38.669Z,0
2018-04-02T03:04:38.630Z,0
2018-04-02T03:05:38.613Z,0
2018-04-02T03:06:38.386Z,0
2018-04-02T03:07:38.019Z,0
2018-04-02T03:08:38.041Z,0
2018-04-02T03:09:38.516Z,0
2018-04-02T03:10:38.011Z,0
2018-04-02T03:11:37.942Z,0
2018-04-02T03:12:38.189Z,0
2018-04-02T03:13:38.811Z,0
2018-04-02T03:14:38.484Z,0
2018-04-02T03:15:38.467Z,0
2018-04-02T03:16:38.418Z,0
2018-04-02T03:17:38.719Z,0
2018-04-02T03:18:38.102Z,0
2018-04-02T03:19:38.182Z,0
2018-04-02T03:20:38.556Z,0
2018-04-02T03:21:38.262Z,0
2018-04-02T03:22:38.036Z,0
2018-04-02T03:23:37.966Z,0
2018-04-02T03:24:38.554Z,0
2018-04-02T03:25:38.194Z,0
2018-04-02T03:26:38.043Z,0
2018-04-02T03:27:37.973Z,0
2018-04-02T03:28:37.856Z,0
2018-04-02T03:29:38.104Z,0
2018-04-02T03:30:38.116Z,0
2018-04-02T03:31:38.064Z,0
2018-04-02T03:32:38.038Z,0
2018-04-02T03:33:38.285Z,0
2018-04-02T03:34:38.260Z,0
2018-04-02T03:35:37.714Z,0
2018-04-02T03:36:37.695Z,0
2018-04-02T03:37:37.667Z,0
2018-04-02T03:38:37.652Z,0
2018-04-02T03:39:37.908Z,0
2018-04-02T03:40:38.146Z,0
2018-04-02T03:41:37.862Z,0
2018-04-02T03:42:37.304Z,0
2018-04-02T03:43:37.813Z,0
2018-04-02T03:44:37.535Z,0
2018-04-02T03:45:38.041Z,0
2018-04-02T03:46:37.485Z,0
2018-04-02T03:47:37.472Z,0
2018-04-02T03:48:37.711Z,0
2018-04-02T03:49:37.686Z,0
2018-04-02T03:50:37.676Z,0
2018-04-02T03:51:37.386Z,0
2018-04-02T03:52:37.894Z,0
2018-04-02T03:53:37.337Z,0
2018-04-02T03:54:37.328Z,0
2018-04-02T03:55:37.296Z,0
2018-04-02T03:56:37.285Z,0
2018-04-02T03:57:37.521Z,0
2018-04-02T03:58:37.497Z,0
2018-04-02T03:59:37.214Z,0
2018-04-02T04:00:37.461Z,0
2018-04-02T04:01:37.179Z,0
2018-04-02T04:02:37.160Z,0
2018-04-02T04:03:36.875Z,0
2018-04-02T04:04:37.111Z,0
2018-04-02T04:05:37.090Z,0
2018-04-02T04:06:36.808Z,0
2018-04-02T04:07:37.327Z,0
2018-04-02T04:08:37.027Z,0
2018-04-02T04:09:36.754Z,0
2018-04-02T04:10:37.251Z,0
2018-04-02T04:11:37.434Z,0
2018-04-02T04:12:37.526Z,0
2018-04-02T04:13:37.460Z,0
2018-04-02T04:14:36.902Z,0
2018-04-02T04:15:36.887Z,0
2018-04-02T04:16:37.137Z,0
2018-04-02T04:17:37.557Z,0
2018-04-02T04:18:37.081Z,0
2018-04-02T04:19:36.534Z,0
2018-04-02T04:20:37.040Z,0
2018-04-02T04:21:37.018Z,0
2018-04-02T04:22:36.739Z,0
2018-04-02T04:23:36.979Z,0
2018-04-02T04:24:36.696Z,0
2018-04-02T04:25:36.670Z,0
2018-04-02T04:26:36.924Z,0
2018-04-02T04:27:36.899Z,0
2018-04-02T04:28:36.610Z,0
2018-04-02T04:29:37.120Z,0
2018-04-02T04:30:36.828Z,0
2018-04-02T04:31:36.540Z,0
2018-04-02T04:32:36.795Z,4
2018-04-02T04:33:36.497Z,4
2018-04-02T04:34:36.767Z,0
2018-04-02T04:35:36.732Z,4
2018-04-02T04:36:36.442Z,4
2018-04-02T04:37:36.676Z,4
2018-04-02T04:38:36.660Z,4
2018-04-02T04:39:36.382Z,0
2018-04-02T04:40:36.624Z,4
2018-04-02T04:41:36.918Z,4
2018-04-02T04:42:36.843Z,8
2018-04-02T04:43:36.551Z,8
2018-04-02T04:44:36.270Z,8
2018-04-02T04:45:36.246Z,8
2018-04-02T04:46:36.767Z,8
2018-04-02T04:47:36.206Z,12
2018-04-02T04:48:36.720Z,12
2018-04-02T04:49:36.437Z,16
2018-04-02T04:50:36.418Z,16
2018-04-02T04:51:36.485Z,20
2018-04-02T04:52:36.367Z,24
2018-04-02T04:53:36.611Z,28
2018-04-02T04:54:36.582Z,32
2018-04-02T04:55:36.575Z,36
2018-04-02T04:56:36.024Z,40
2018-04-02T04:57:36.001Z,48
2018-04-02T04:58:35.980Z,56
2018-04-02T04:59:35.951Z,64
2018-04-02T05:00:36.198Z,76
2018-04-02T05:01:36.175Z,84
2018-04-02T05:02:35.627Z,96
2018-04-02T05:03:36.134Z,108
2018-04-02T05:04:36.116Z,120
2018-04-02T05:05:36.114Z,136
2018-04-02T05:06:35.808Z,156
2018-04-02T05:07:36.319Z,176
2018-04-02T05:08:36.297Z,196
2018-04-02T05:09:35.740Z,216
2018-04-02T05:10:35.721Z,244
2018-04-02T05:11:35.972Z,276
2018-04-02T05:12:35.692Z,308
2018-04-02T05:13:35.938Z,344
2018-04-02T05:14:35.910Z,376
2018-04-02T05:15:35.886Z,408
2018-04-02T05:16:35.606Z,444
2018-04-02T05:17:35.647Z,484
2018-04-02T05:18:36.096Z,520
2018-04-02T05:19:35.531Z,560
2018-04-02T05:20:35.265Z,604
2018-04-02T05:21:35.525Z,648
2018-04-02T05:22:35.509Z,692
2018-04-02T05:23:35.735Z,728
2018-04-02T05:24:35.752Z,752
2018-04-02T05:25:35.681Z,784
2018-04-02T05:26:35.455Z,808
2018-04-02T05:27:35.366Z,832
2018-04-02T05:28:35.427Z,864
2018-04-02T05:29:35.606Z,900
2018-04-02T05:30:35.593Z,944
2018-04-02T05:31:35.654Z,984
2018-04-02T05:32:35.267Z,1020
2018-04-02T05:33:35.253Z,1052
2018-04-02T05:34:35.586Z,1092
2018-04-02T05:35:35.253Z,1148
2018-04-02T05:36:35.184Z,1192
2018-04-02T05:37:35.722Z,1212
2018-04-02T05:38:35.018Z,1252
2018-04-02T05:39:35.760Z,1320
2018-04-02T05:40:35.630Z,1372
2018-04-02T05:41:35.075Z,1376
2018-04-02T05:42:35.415Z,1372
2018-04-02T05:43:35.140Z,1392
2018-04-02T05:44:35.598Z,1416
2018-04-02T05:45:35.692Z,1464
2018-04-02T05:46:35.621Z,1520
2018-04-02T05:47:35.010Z,1564
2018-04-02T05:48:35.579Z,1620
2018-04-02T05:49:35.546Z,1688
2018-04-02T05:50:35.000Z,1740
2018-04-02T05:51:35.145Z,1764
2018-04-02T05:52:35.132Z,1788
2018-04-02T05:53:35.284Z,1812
2018-04-02T05:54:34.603Z,1844
2018-04-02T05:55:34.966Z,1900
2018-04-02T05:56:35.539Z,1968
2018-04-02T05:57:35.281Z,2036
2018-04-02T05:58:35.246Z,2116
2018-04-02T05:59:34.512Z,2196
2018-04-02T06:00:34.960Z,2284
2018-04-02T06:01:34.673Z,2360
2018-04-02T06:02:34.907Z,2408
2018-04-02T06:03:34.936Z,2420
2018-04-02T06:04:34.917Z,2404
2018-04-02T06:05:35.110Z,2376
2018-04-02T06:06:35.362Z,2336
2018-04-02T06:07:35.042Z,2308
2018-04-02T06:08:34.901Z,2292
2018-04-02T06:09:34.920Z,2292
2018-04-02T06:10:34.859Z,2300
2018-04-02T06:11:34.824Z,2296
2018-04-02T06:12:35.236Z,2288
2018-04-02T06:13:34.531Z,2288
2018-04-02T06:14:34.995Z,2320
2018-04-02T06:15:34.714Z,2380
2018-04-02T06:16:34.793Z,2484
2018-04-02T06:17:34.384Z,2656
2018-04-02T06:18:34.587Z,2924
2018-04-02T06:19:34.708Z,3240
2018-04-02T06:20:34.540Z,3516
2018-04-02T06:21:34.533Z,3716
2018-04-02T06:22:34.323Z,3848
2018-04-02T06:23:33.984Z,3960
2018-04-02T06:24:34.462Z,4064
2018-04-02T06:25:34.234Z,4156
2018-04-02T06:26:34.737Z,4224
2018-04-02T06:27:34.426Z,4368
2018-04-02T06:28:34.167Z,4500
2018-04-02T06:29:34.395Z,4560
2018-04-02T06:30:34.609Z,4592
2018-04-02T06:31:34.433Z,4684
2018-04-02T06:32:34.305Z,4860
2018-04-02T06:33:34.613Z,5032
2018-04-02T06:34:34.097Z,5064
2018-04-02T06:35:34.244Z,5036
2018-04-02T06:36:34.317Z,5024
2018-04-02T06:37:33.982Z,4968
2018-04-02T06:38:34.195Z,4908
2018-04-02T06:39:34.178Z,4812
2018-04-02T06:40:33.944Z,4656
2018-04-02T06:41:33.865Z,4472
2018-04-02T06:42:34.406Z,4364
2018-04-02T06:43:33.855Z,4316
2018-04-02T06:44:34.401Z,4328
2018-04-02T06:45:33.901Z,4368
2018-04-02T06:46:34.391Z,4396
2018-04-02T06:47:33.739Z,4420
2018-04-02T06:48:34.002Z,4452
2018-04-02T06:49:34.003Z,4484
2018-04-02T06:50:33.731Z,4516
2018-04-02T06:51:33.405Z,4572
2018-04-02T06:52:33.921Z,4636
2018-04-02T06:53:33.827Z,4756
2018-04-02T06:54:33.603Z,4964
2018-04-02T06:55:33.844Z,5180
2018-04-02T06:56:34.237Z,5340
2018-04-02T06:57:33.814Z,5412
2018-04-02T06:58:34.056Z,5448
2018-04-02T06:59:33.437Z,5452
2018-04-02T07:00:34.114Z,5384
2018-04-02T07:01:33.762Z,5232
2018-04-02T07:02:33.746Z,5120
2018-04-02T07:03:33.499Z,5004
2018-04-02T07:04:33.834Z,4964
2018-04-02T07:05:34.010Z,4952
2018-04-02T07:06:33.697Z,4944
2018-04-02T07:07:33.372Z,5036
2018-04-02T07:08:33.670Z,5176
2018-04-02T07:09:33.379Z,5296
2018-04-02T07:10:33.456Z,5424
2018-04-02T07:11:33.936Z,5564
2018-04-02T07:12:33.789Z,5716
2018-04-02T07:13:33.311Z,5896
2018-04-02T07:14:33.826Z,6048
2018-04-02T07:15:32.989Z,6144
2018-04-02T07:16:33.498Z,6164
2018-04-02T07:17:33.168Z,6060
2018-04-02T07:18:33.412Z,6008
2018-04-02T07:19:32.940Z,6168
2018-04-02T07:20:33.115Z,6396
2018-04-02T07:21:33.360Z,6560
2018-04-02T07:22:33.341Z,6604
2018-04-02T07:23:33.817Z,6600
2018-04-02T07:24:33.085Z,6820
2018-04-02T07:25:33.557Z,7524
2018-04-02T07:26:33.537Z,7500
2018-04-02T07:27:33.551Z,7716
2018-04-02T07:28:33.017Z,7848
2018-04-02T07:29:33.348Z,7920
2018-04-02T07:30:32.975Z,7736
2018-04-02T07:31:33.494Z,7800
2018-04-02T07:32:33.231Z,7992
2018-04-02T07:33:33.136Z,8016
2018-04-02T07:34:33.127Z,7968
2018-04-02T07:35:32.616Z,7608
2018-04-02T07:36:32.552Z,7332
2018-04-02T07:37:32.941Z,7476
2018-04-02T07:38:32.785Z,7840
2018-04-02T07:39:33.040Z,8544
2018-04-02T07:40:32.759Z,9708
2018-04-02T07:41:33.279Z,10704
2018-04-02T07:42:32.713Z,10916
2018-04-02T07:43:32.734Z,11140
2018-04-02T07:44:32.949Z,11544
2018-04-02T07:45:32.667Z,11388
2018-04-02T07:46:32.657Z,11108
2018-04-02T07:47:32.889Z,10744
2018-04-02T07:48:32.864Z,10532
2018-04-02T07:49:32.589Z,10132
2018-04-02T07:50:32.889Z,9924
2018-04-02T07:51:32.829Z,9680
2018-04-02T07:52:32.282Z,9540
2018-04-02T07:53:32.261Z,9508
2018-04-02T07:54:32.782Z,9592
2018-04-02T07:55:33.026Z,9692
2018-04-02T07:56:33.019Z,9912
2018-04-02T07:57:32.206Z,10376
2018-04-02T07:58:32.450Z,10844
2018-04-02T07:59:32.421Z,11032
2018-04-02T08:00:32.672Z,11240
2018-04-02T08:01:32.715Z,11764
2018-04-02T08:02:32.664Z,11848
2018-04-02T08:03:32.626Z,11632
2018-04-02T08:04:32.605Z,11344
2018-04-02T08:05:32.749Z,11148
2018-04-02T08:06:32.843Z,10960
2018-04-02T08:07:32.559Z,10980
2018-04-02T08:08:32.279Z,10968
2018-04-02T08:09:32.528Z,10924
2018-04-02T08:10:32.512Z,10864
2018-04-02T08:11:32.436Z,10744
2018-04-02T08:12:32.256Z,10904
2018-04-02T08:13:32.837Z,11148
2018-04-02T08:14:32.466Z,11524
2018-04-02T08:15:32.162Z,12292
2018-04-02T08:16:32.143Z,12740
2018-04-02T08:17:32.467Z,12656
2018-04-02T08:18:32.128Z,12992
2018-04-02T08:19:32.100Z,14160
2018-04-02T08:20:32.638Z,12416
2018-04-02T08:21:32.414Z,12568
2018-04-02T08:22:32.143Z,12024
2018-04-02T08:23:32.346Z,11936
2018-04-02T08:24:32.373Z,14800
2018-04-02T08:25:32.441Z,12016
2018-04-02T08:26:32.574Z,12800
2018-04-02T08:27:31.744Z,13240
2018-04-02T08:28:32.524Z,14632
2018-04-02T08:29:32.319Z,22112
2018-04-02T08:30:32.239Z,15724
2018-04-02T08:31:32.477Z,14820
2018-04-02T08:32:32.584Z,11676
2018-04-02T08:33:32.467Z,11356
2018-04-02T08:34:31.619Z,11616
2018-04-02T08:35:32.385Z,12148
2018-04-02T08:36:31.927Z,12564
2018-04-02T08:37:32.090Z,18848
2018-04-02T08:38:32.124Z,21888
2018-04-02T08:39:32.311Z,14300
2018-04-02T08:40:32.314Z,14520
2018-04-02T08:41:32.137Z,18528
2018-04-02T08:42:32.019Z,11440
2018-04-02T08:43:32.007Z,26496
2018-04-02T08:44:32.022Z,33152
2018-04-02T08:45:31.713Z,26112
2018-04-02T08:46:31.697Z,22272
2018-04-02T08:47:32.063Z,21344
2018-04-02T08:48:32.316Z,21056
2018-04-02T08:49:32.342Z,31712
2018-04-02T08:50:32.323Z,29600
2018-04-02T08:51:32.216Z,24576
2018-04-02T08:52:32.164Z,21664
2018-04-02T08:53:31.925Z,26528
2018-04-02T08:54:32.189Z,22400
2018-04-02T08:55:31.893Z,19200
2018-04-02T08:56:31.573Z,17760
2018-04-02T08:57:31.895Z,16832
2018-04-02T08:58:31.287Z,16544
2018-04-02T08:59:31.575Z,17056
2018-04-02T09:00:31.602Z,17152
2018-04-02T09:01:31.256Z,17440
2018-04-02T09:02:31.539Z,18272
2018-04-02T09:03:31.547Z,17568
2018-04-02T09:04:31.640Z,17088
2018-04-02T09:05:31.758Z,16608
2018-04-02T09:06:31.207Z,15656
2018-04-02T09:07:31.735Z,15064
2018-04-02T09:08:31.987Z,14528
2018-04-02T09:09:31.437Z,14060
2018-04-02T09:10:31.740Z,13456
2018-04-02T09:11:31.675Z,13352
2018-04-02T09:12:31.453Z,13632
2018-04-02T09:13:31.401Z,13452
2018-04-02T09:14:31.116Z,13536
2018-04-02T09:15:31.978Z,13928
2018-04-02T09:16:31.956Z,13700
2018-04-02T09:17:31.614Z,14760
2018-04-02T09:18:31.592Z,17280
2018-04-02T09:19:31.613Z,15684
2018-04-02T09:20:31.322Z,15376
2018-04-02T09:21:31.300Z,14532
2018-04-02T09:22:31.542Z,13216
2018-04-02T09:23:31.872Z,13232
2018-04-02T09:24:31.782Z,14448
2018-04-02T09:25:31.772Z,17280
2018-04-02T09:26:31.795Z,20576
2018-04-02T09:27:31.756Z,17920
2018-04-02T09:28:31.206Z,18752
2018-04-02T09:29:31.189Z,21312
2018-04-02T09:30:31.708Z,19584
2018-04-02T09:31:31.188Z,17856
2018-04-02T09:32:31.152Z,17440
2018-04-02T09:33:31.417Z,15596
2018-04-02T09:34:31.407Z,13572
2018-04-02T09:35:31.667Z,12552
2018-04-02T09:36:31.102Z,11924
2018-04-02T09:37:31.093Z,11980
2018-04-02T09:38:31.089Z,12892
2018-04-02T09:39:31.125Z,13744
2018-04-02T09:40:31.457Z,13680
2018-04-02T09:41:31.048Z,12980
2018-04-02T09:42:31.046Z,12336
2018-04-02T09:43:31.545Z,12268
2018-04-02T09:44:30.998Z,12596
2018-04-02T09:45:31.265Z,13136
2018-04-02T09:46:30.717Z,13928
2018-04-02T09:47:31.240Z,14524
2018-04-02T09:48:31.313Z,14596
2018-04-02T09:49:30.939Z,14624
2018-04-02T09:50:31.461Z,14728
2018-04-02T09:51:31.192Z,15356
2018-04-02T09:52:30.906Z,16928
2018-04-02T09:53:31.178Z,18912
2018-04-02T09:54:31.418Z,21024
2018-04-02T09:55:31.415Z,25600
2018-04-02T09:56:30.860Z,22624
2018-04-02T09:57:30.842Z,20032
2018-04-02T09:58:31.100Z,19520
2018-04-02T09:59:30.914Z,19584
2018-04-02T10:00:31.344Z,17888
2018-04-02T10:01:30.799Z,18176
2018-04-02T10:02:30.785Z,20064
2018-04-02T10:03:31.028Z,22560
2018-04-02T10:04:31.267Z,23232
2018-04-02T10:05:30.747Z,23296
2018-04-02T10:06:30.992Z,24576
2018-04-02T10:07:31.249Z,30144
2018-04-02T10:08:31.262Z,27904
2018-04-02T10:09:31.239Z,25376
2018-04-02T10:10:30.465Z,25888
2018-04-02T10:11:31.710Z,25280
2018-04-02T10:12:30.662Z,27424
2018-04-02T10:13:30.925Z,28160
2018-04-02T10:14:30.377Z,23264
2018-04-02T10:15:30.694Z,21280
2018-04-02T10:16:31.162Z,21600
2018-04-02T10:17:30.621Z,21088
2018-04-02T10:18:31.132Z,19584
2018-04-02T10:19:30.591Z,19200
2018-04-02T10:20:30.844Z,19808
2018-04-02T10:21:31.125Z,20800
2018-04-02T10:22:30.282Z,22912
2018-04-02T10:23:30.800Z,19232
2018-04-02T10:24:30.527Z,18016
2018-04-02T10:25:31.039Z,18368
2018-04-02T10:26:30.502Z,19456
2018-04-02T10:27:30.484Z,21312
2018-04-02T10:28:30.758Z,23744
2018-04-02T10:29:30.789Z,26624
2018-04-02T10:30:30.716Z,25504
2018-04-02T10:31:30.766Z,24480
2018-04-02T10:32:30.694Z,22688
2018-04-02T10:33:30.973Z,20608
2018-04-02T10:34:30.148Z,21248
2018-04-02T10:35:30.676Z,27680
2018-04-02T10:36:30.692Z,24160
2018-04-02T10:37:30.375Z,25440
2018-04-02T10:38:30.385Z,21152
2018-04-02T10:39:30.351Z,43040
2018-04-02T10:40:30.355Z,43488
2018-04-02T10:41:30.868Z,43360
2018-04-02T10:42:30.796Z,22688
2018-04-02T10:43:30.596Z,18400
2018-04-02T10:44:30.580Z,16640
2018-04-02T10:45:30.856Z,16800
2018-04-02T10:46:30.019Z,18144
2018-04-02T10:47:30.266Z,17216
2018-04-02T10:48:30.282Z,13328
2018-04-02T10:49:30.262Z,11796
2018-04-02T10:50:30.568Z,11948
2018-04-02T10:51:29.957Z,12160
2018-04-02T10:52:30.223Z,12880
2018-04-02T10:53:29.940Z,14776
2018-04-02T10:54:30.469Z,17024
2018-04-02T10:55:30.187Z,20512
2018-04-02T10:56:30.754Z,41824
2018-04-02T10:57:30.435Z,43680
2018-04-02T10:58:30.674Z,29216
2018-04-02T10:59:30.566Z,27584
2018-04-02T11:00:30.155Z,27424
2018-04-02T11:01:30.827Z,23424
2018-04-02T11:02:30.380Z,22272
2018-04-02T11:03:30.626Z,21952
2018-04-02T11:04:30.743Z,26848
2018-04-02T11:05:30.360Z,35328
2018-04-02T11:06:30.073Z,27200
2018-04-02T11:07:30.052Z,26528
2018-04-02T11:08:30.378Z,26816
2018-04-02T11:09:30.305Z,25504
2018-04-02T11:10:30.287Z,22432
2018-04-02T11:11:30.020Z,22720
2018-04-02T11:12:30.044Z,23264
2018-04-02T11:13:30.525Z,22400
2018-04-02T11:14:30.256Z,20256
2018-04-02T11:15:30.238Z,18272
2018-04-02T11:16:30.028Z,15904
2018-04-02T11:17:30.352Z,14516
2018-04-02T11:18:30.286Z,15276
2018-04-02T11:19:29.934Z,17696
2018-04-02T11:20:30.446Z,20352
2018-04-02T11:21:30.192Z,21472
2018-04-02T11:22:30.216Z,23968
2018-04-02T11:23:30.171Z,29600
2018-04-02T11:24:30.146Z,27776
2018-04-02T11:25:30.138Z,25664
2018-04-02T11:26:30.120Z,23936
2018-04-02T11:27:30.114Z,20800
2018-04-02T11:28:29.954Z,19232
2018-04-02T11:29:30.310Z,20256
2018-04-02T11:30:30.401Z,18784
2018-04-02T11:31:29.801Z,17632
2018-04-02T11:32:30.050Z,16960
2018-04-02T11:33:30.324Z,17952
2018-04-02T11:34:30.024Z,19904
2018-04-02T11:35:30.286Z,20864
2018-04-02T11:36:30.279Z,23808
2018-04-02T11:37:30.401Z,25408
2018-04-02T11:38:30.100Z,29248
2018-04-02T11:39:29.774Z,30688
2018-04-02T11:40:29.700Z,29408
2018-04-02T11:41:30.358Z,27808
2018-04-02T11:42:29.759Z,26176
2018-04-02T11:43:29.665Z,25984
2018-04-02T11:44:29.741Z,25696
2018-04-02T11:45:29.913Z,28448
2018-04-02T11:46:29.630Z,38176
2018-04-02T11:47:30.057Z,41696
2018-04-02T11:48:29.606Z,41216
2018-04-02T11:49:29.604Z,35936
2018-04-02T11:50:30.117Z,36576
2018-04-02T11:51:29.584Z,35712
2018-04-02T11:52:29.571Z,53120
2018-04-02T11:53:29.337Z,41376
2018-04-02T11:54:29.284Z,32512
2018-04-02T11:55:29.803Z,37728
2018-04-02T11:56:29.796Z,30496
2018-04-02T11:57:29.790Z,26592
2018-04-02T11:58:29.251Z,26720
2018-04-02T11:59:30.094Z,27552
2018-04-02T12:00:29.541Z,29312
2018-04-02T12:01:29.771Z,28000
2018-04-02T12:02:29.569Z,29696
2018-04-02T12:03:29.540Z,29984
2018-04-02T12:04:29.568Z,28224
2018-04-02T12:05:29.711Z,27424
2018-04-02T12:06:29.977Z,26240
2018-04-02T12:07:29.426Z,25536
2018-04-02T12:08:29.936Z,26912
2018-04-02T12:09:29.420Z,29760
2018-04-02T12:10:30.027Z,30816
2018-04-02T12:11:29.677Z,35136
2018-04-02T12:12:29.427Z,27232
2018-04-02T12:13:29.386Z,25184
2018-04-02T12:14:29.423Z,56288
2018-04-02T12:15:29.901Z,44512
2018-04-02T12:16:29.618Z,59360
2018-04-02T12:17:29.344Z,74752
2018-04-02T12:18:29.621Z,48960
2018-04-02T12:19:29.599Z,83136
2018-04-02T12:20:29.648Z,38848
2018-04-02T12:21:29.322Z,30816
2018-04-02T12:22:29.579Z,25024
2018-04-02T12:23:29.298Z,23264
2018-04-02T12:24:29.399Z,25824
2018-04-02T12:25:29.050Z,32160
2018-04-02T12:26:29.304Z,26240
2018-04-02T12:27:29.666Z,36960
2018-04-02T12:28:29.267Z,34944
2018-04-02T12:29:28.989Z,27328
2018-04-02T12:30:29.529Z,24512
2018-04-02T12:31:29.515Z,27456
2018-04-02T12:32:29.244Z,42784
2018-04-02T12:33:29.869Z,43584
2018-04-02T12:34:29.634Z,45152
2018-04-02T12:35:29.866Z,31200
2018-04-02T12:36:29.206Z,28288
2018-04-02T12:37:29.468Z,25344
2018-04-02T12:38:29.525Z,25600
2018-04-02T12:39:29.223Z,27424
2018-04-02T12:40:30.114Z,26240
2018-04-02T12:41:29.489Z,25120
2018-04-02T12:42:29.156Z,24256
2018-04-02T12:43:29.437Z,22400
2018-04-02T12:44:29.478Z,21056
2018-04-02T12:45:28.913Z,21120
2018-04-02T12:46:29.402Z,21344
2018-04-02T12:47:29.670Z,21792
2018-04-02T12:48:29.179Z,22752
2018-04-02T12:49:28.840Z,20192
2018-04-02T12:50:29.360Z,20224
2018-04-02T12:51:29.123Z,20352
2018-04-02T12:52:29.362Z,20000
2018-04-02T12:53:29.333Z,20448
2018-04-02T12:54:29.323Z,20992
2018-04-02T12:55:29.052Z,20960
2018-04-02T12:56:29.309Z,17920
2018-04-02T12:57:28.767Z,19840
2018-04-02T12:58:29.297Z,24448
2018-04-02T12:59:29.285Z,20032
2018-04-02T13:00:29.542Z,18016
2018-04-02T13:01:29.537Z,19392
2018-04-02T13:02:28.981Z,22464
2018-04-02T13:03:29.240Z,31840
2018-04-02T13:04:30.157Z,70336
2018-04-02T13:05:29.225Z,77088
2018-04-02T13:06:29.216Z,87008
2018-04-02T13:07:28.940Z,40320
2018-04-02T13:08:29.462Z,29856
2018-04-02T13:09:29.464Z,40512
2018-04-02T13:10:28.647Z,61312
2018-04-02T13:11:29.172Z,19872
2018-04-02T13:12:29.178Z,15624
2018-04-02T13:13:29.183Z,16204
2018-04-02T13:14:28.896Z,17504
2018-04-02T13:15:29.408Z,14624
2018-04-02T13:16:29.152Z,13740
2018-04-02T13:17:29.134Z,13960
2018-04-02T13:18:28.848Z,13896
2018-04-02T13:19:29.178Z,13728
2018-04-02T13:20:29.097Z,13348
2018-04-02T13:21:29.097Z,14456
2018-04-02T13:22:28.821Z,14964
2018-04-02T13:23:29.339Z,15328
2018-04-02T13:24:28.801Z,17824
2018-04-02T13:25:29.070Z,19232
2018-04-02T13:26:29.056Z,18464
2018-04-02T13:27:29.042Z,16244
2018-04-02T13:28:28.763Z,15064
2018-04-02T13:29:29.082Z,15016
2018-04-02T13:30:29.009Z,16108
2018-04-02T13:31:29.136Z,20544
2018-04-02T13:32:28.718Z,20032
2018-04-02T13:33:28.816Z,60864
2018-04-02T13:34:29.241Z,21952
2018-04-02T13:35:28.695Z,13560
2018-04-02T13:36:28.959Z,9364
2018-04-02T13:37:28.673Z,8188